sensor_id;sensor_type;location;lat;lon;timestamp;P1;durP1;ratioP1;P2;durP2;ratioP2
40907;SDS011;51055;59.436;24.778;2023-02-19T00:01:54;7.25;;;3.15;;
40907;SDS011;51055;59.436;24.778;2023-02-19T00:04:22;7.40;;;2.85;;
40907;SDS011;51055;59.436;24.778;2023-02-19T00:06:50;5.72;;;2.78;;
40907;SDS011;51055;59.436;24.778;2023-02-19T00:09:18;5.10;;;2.60;;
40907;SDS011;51055;59.436;24.778;2023-02-19T00:11:46;3.63;;;2.00;;
40907;SDS011;51055;59.436;24.778;2023-02-19T00:14:15;5.43;;;2.55;;
40907;SDS011;51055;59.436;24.778;2023-02-19T00:16:45;5.40;;;2.70;;
40907;SDS011;51055;59.436;24.778;2023-02-19T00:19:14;5.10;;;2.70;;
40907;SDS011;51055;59.436;24.778;2023-02-19T00:21:44;5.53;;;2.70;;
40907;SDS011;51055;59.436;24.778;2023-02-19T00:24:13;3.78;;;1.85;;
40907;SDS011;51055;59.436;24.778;2023-02-19T00:26:41;4.82;;;2.47;;
40907;SDS011;51055;59.436;24.778;2023-02-19T00:29:14;5.22;;;2.50;;
40907;SDS011;51055;59.436;24.778;2023-02-19T00:31:43;4.82;;;2.42;;
40907;SDS011;51055;59.436;24.778;2023-02-19T00:34:11;4.93;;;2.60;;
40907;SDS011;51055;59.436;24.778;2023-02-19T00:36:40;3.40;;;1.90;;
40907;SDS011;51055;59.436;24.778;2023-02-19T00:39:10;4.97;;;2.40;;
40907;SDS011;51055;59.436;24.778;2023-02-19T00:41:42;6.10;;;2.17;;
40907;SDS011;51055;59.436;24.778;2023-02-19T00:44:10;3.53;;;1.70;;
40907;SDS011;51055;59.436;24.778;2023-02-19T00:49:09;3.97;;;2.20;;
40907;SDS011;51055;59.436;24.778;2023-02-19T00:51:41;5.05;;;2.30;;
40907;SDS011;51055;59.436;24.778;2023-02-19T00:54:09;4.60;;;2.53;;
40907;SDS011;51055;59.436;24.778;2023-02-19T00:56:38;4.65;;;2.20;;
40907;SDS011;51055;59.436;24.778;2023-02-19T00:59:06;6.75;;;2.50;;
40907;SDS011;51055;59.436;24.778;2023-02-19T01:01:33;4.78;;;2.35;;
40907;SDS011;51055;59.436;24.778;2023-02-19T01:04:01;4.18;;;2.13;;
40907;SDS011;51055;59.436;24.778;2023-02-19T01:06:32;4.85;;;2.28;;
40907;SDS011;51055;59.436;24.778;2023-02-19T01:09:01;3.78;;;2.05;;
40907;SDS011;51055;59.436;24.778;2023-02-19T01:11:29;4.57;;;2.28;;
40907;SDS011;51055;59.436;24.778;2023-02-19T01:13:58;4.15;;;2.10;;
40907;SDS011;51055;59.436;24.778;2023-02-19T01:16:27;4.47;;;2.10;;
40907;SDS011;51055;59.436;24.778;2023-02-19T01:18:55;5.50;;;2.25;;
40907;SDS011;51055;59.436;24.778;2023-02-19T01:21:24;5.63;;;2.40;;
40907;SDS011;51055;59.436;24.778;2023-02-19T01:23:53;4.97;;;2.08;;
40907;SDS011;51055;59.436;24.778;2023-02-19T01:26:22;4.53;;;2.10;;
40907;SDS011;51055;59.436;24.778;2023-02-19T01:28:53;4.63;;;2.20;;
40907;SDS011;51055;59.436;24.778;2023-02-19T01:31:22;5.38;;;2.53;;
40907;SDS011;51055;59.436;24.778;2023-02-19T01:33:56;3.95;;;2.17;;
40907;SDS011;51055;59.436;24.778;2023-02-19T01:36:26;4.72;;;2.20;;
40907;SDS011;51055;59.436;24.778;2023-02-19T01:38:55;4.50;;;2.38;;
40907;SDS011;51055;59.436;24.778;2023-02-19T01:41:24;3.53;;;1.70;;
40907;SDS011;51055;59.436;24.778;2023-02-19T01:46:35;3.65;;;1.80;;
40907;SDS011;51055;59.436;24.778;2023-02-19T01:49:05;3.75;;;1.92;;
40907;SDS011;51055;59.436;24.778;2023-02-19T01:51:35;4.20;;;2.13;;
40907;SDS011;51055;59.436;24.778;2023-02-19T01:54:06;4.38;;;1.90;;
40907;SDS011;51055;59.436;24.778;2023-02-19T01:56:38;4.55;;;2.10;;
40907;SDS011;51055;59.436;24.778;2023-02-19T01:59:07;3.65;;;2.05;;
40907;SDS011;51055;59.436;24.778;2023-02-19T02:01:36;3.53;;;1.97;;
40907;SDS011;51055;59.436;24.778;2023-02-19T02:04:05;3.03;;;1.90;;
40907;SDS011;51055;59.436;24.778;2023-02-19T02:06:42;4.05;;;2.10;;
40907;SDS011;51055;59.436;24.778;2023-02-19T02:09:17;4.88;;;2.15;;
40907;SDS011;51055;59.436;24.778;2023-02-19T02:12:05;5.53;;;2.38;;
40907;SDS011;51055;59.436;24.778;2023-02-19T02:14:33;3.88;;;2.10;;
40907;SDS011;51055;59.436;24.778;2023-02-19T02:17:14;4.00;;;1.80;;
40907;SDS011;51055;59.436;24.778;2023-02-19T02:31:15;4.07;;;2.00;;
40907;SDS011;51055;59.436;24.778;2023-02-19T02:34:11;5.68;;;1.83;;
40907;SDS011;51055;59.436;24.778;2023-02-19T02:36:43;4.32;;;2.00;;
40907;SDS011;51055;59.436;24.778;2023-02-19T02:39:14;5.15;;;2.38;;
40907;SDS011;51055;59.436;24.778;2023-02-19T02:41:48;3.42;;;1.90;;
40907;SDS011;51055;59.436;24.778;2023-02-19T02:44:40;4.47;;;1.50;;
40907;SDS011;51055;59.436;24.778;2023-02-19T02:47:08;3.30;;;1.52;;
40907;SDS011;51055;59.436;24.778;2023-02-19T02:49:57;4.60;;;1.90;;
40907;SDS011;51055;59.436;24.778;2023-02-19T02:52:32;3.60;;;1.80;;
40907;SDS011;51055;59.436;24.778;2023-02-19T02:55:23;5.15;;;1.60;;
40907;SDS011;51055;59.436;24.778;2023-02-19T02:57:52;3.45;;;1.70;;
40907;SDS011;51055;59.436;24.778;2023-02-19T03:00:21;3.90;;;1.92;;
40907;SDS011;51055;59.436;24.778;2023-02-19T03:02:52;3.80;;;1.55;;
40907;SDS011;51055;59.436;24.778;2023-02-19T03:05:22;4.07;;;1.60;;
40907;SDS011;51055;59.436;24.778;2023-02-19T03:08:14;5.85;;;1.98;;
40907;SDS011;51055;59.436;24.778;2023-02-19T03:13:52;4.20;;;1.60;;
40907;SDS011;51055;59.436;24.778;2023-02-19T03:16:44;4.18;;;1.60;;
40907;SDS011;51055;59.436;24.778;2023-02-19T03:19:36;3.95;;;1.75;;
40907;SDS011;51055;59.436;24.778;2023-02-19T03:22:15;6.90;;;1.83;;
40907;SDS011;51055;59.436;24.778;2023-02-19T03:24:48;3.33;;;1.40;;
40907;SDS011;51055;59.436;24.778;2023-02-19T03:27:46;3.70;;;1.50;;
40907;SDS011;51055;59.436;24.778;2023-02-19T03:30:23;4.88;;;2.08;;
40907;SDS011;51055;59.436;24.778;2023-02-19T03:35:49;4.25;;;1.95;;
40907;SDS011;51055;59.436;24.778;2023-02-19T03:38:24;6.05;;;2.10;;
40907;SDS011;51055;59.436;24.778;2023-02-19T03:46:08;3.80;;;1.52;;
40907;SDS011;51055;59.436;24.778;2023-02-19T03:48:51;4.47;;;1.40;;
40907;SDS011;51055;59.436;24.778;2023-02-19T03:51:28;7.00;;;1.38;;
40907;SDS011;51055;59.436;24.778;2023-02-19T03:54:12;4.10;;;1.00;;
40907;SDS011;51055;59.436;24.778;2023-02-19T03:56:57;8.70;;;1.27;;
40907;SDS011;51055;59.436;24.778;2023-02-19T03:59:38;7.43;;;1.13;;
40907;SDS011;51055;59.436;24.778;2023-02-19T04:02:12;4.65;;;1.33;;
40907;SDS011;51055;59.436;24.778;2023-02-19T04:04:49;5.03;;;1.23;;
40907;SDS011;51055;59.436;24.778;2023-02-19T04:07:25;5.82;;;1.35;;
40907;SDS011;51055;59.436;24.778;2023-02-19T04:09:56;3.65;;;1.00;;
40907;SDS011;51055;59.436;24.778;2023-02-19T04:12:24;6.40;;;1.20;;
40907;SDS011;51055;59.436;24.778;2023-02-19T04:14:53;1.63;;;0.90;;
40907;SDS011;51055;59.436;24.778;2023-02-19T04:17:35;6.13;;;1.70;;
40907;SDS011;51055;59.436;24.778;2023-02-19T04:20:07;3.85;;;1.30;;
40907;SDS011;51055;59.436;24.778;2023-02-19T04:22:37;4.72;;;1.05;;
40907;SDS011;51055;59.436;24.778;2023-02-19T04:25:07;9.60;;;1.67;;
40907;SDS011;51055;59.436;24.778;2023-02-19T04:27:38;3.60;;;1.00;;
40907;SDS011;51055;59.436;24.778;2023-02-19T04:30:07;3.20;;;0.98;;
40907;SDS011;51055;59.436;24.778;2023-02-19T04:32:38;6.97;;;1.10;;
40907;SDS011;51055;59.436;24.778;2023-02-19T04:35:05;5.57;;;1.20;;
40907;SDS011;51055;59.436;24.778;2023-02-19T04:37:34;6.73;;;1.10;;
40907;SDS011;51055;59.436;24.778;2023-02-19T04:40:01;5.13;;;1.20;;
40907;SDS011;51055;59.436;24.778;2023-02-19T04:42:29;4.72;;;0.88;;
40907;SDS011;51055;59.436;24.778;2023-02-19T04:44:57;4.63;;;1.23;;
40907;SDS011;51055;59.436;24.778;2023-02-19T04:47:25;2.65;;;1.10;;
40907;SDS011;51055;59.436;24.778;2023-02-19T04:49:52;6.25;;;1.27;;
40907;SDS011;51055;59.436;24.778;2023-02-19T04:52:20;6.45;;;1.48;;
40907;SDS011;51055;59.436;24.778;2023-02-19T04:54:47;6.15;;;1.30;;
40907;SDS011;51055;59.436;24.778;2023-02-19T04:57:15;4.75;;;1.48;;
40907;SDS011;51055;59.436;24.778;2023-02-19T04:59:44;4.93;;;1.45;;
40907;SDS011;51055;59.436;24.778;2023-02-19T05:02:13;4.78;;;1.20;;
40907;SDS011;51055;59.436;24.778;2023-02-19T05:04:40;6.32;;;1.38;;
40907;SDS011;51055;59.436;24.778;2023-02-19T05:07:07;4.68;;;1.10;;
40907;SDS011;51055;59.436;24.778;2023-02-19T05:09:35;3.95;;;1.00;;
40907;SDS011;51055;59.436;24.778;2023-02-19T05:12:03;6.57;;;1.52;;
40907;SDS011;51055;59.436;24.778;2023-02-19T05:14:31;5.22;;;1.40;;
40907;SDS011;51055;59.436;24.778;2023-02-19T05:16:58;4.45;;;1.20;;
40907;SDS011;51055;59.436;24.778;2023-02-19T05:19:26;5.50;;;1.10;;
40907;SDS011;51055;59.436;24.778;2023-02-19T05:21:54;4.82;;;1.10;;
40907;SDS011;51055;59.436;24.778;2023-02-19T05:24:21;4.80;;;1.38;;
40907;SDS011;51055;59.436;24.778;2023-02-19T05:26:50;8.20;;;1.70;;
40907;SDS011;51055;59.436;24.778;2023-02-19T05:29:18;6.63;;;1.40;;
40907;SDS011;51055;59.436;24.778;2023-02-19T05:31:45;9.75;;;1.85;;
40907;SDS011;51055;59.436;24.778;2023-02-19T05:34:13;4.97;;;1.27;;
40907;SDS011;51055;59.436;24.778;2023-02-19T05:36:41;5.50;;;1.27;;
40907;SDS011;51055;59.436;24.778;2023-02-19T05:39:10;7.72;;;1.30;;
40907;SDS011;51055;59.436;24.778;2023-02-19T05:41:37;5.40;;;1.40;;
40907;SDS011;51055;59.436;24.778;2023-02-19T05:44:05;3.85;;;1.15;;
40907;SDS011;51055;59.436;24.778;2023-02-19T05:46:33;6.97;;;1.45;;
40907;SDS011;51055;59.436;24.778;2023-02-19T05:49:02;5.50;;;1.40;;
40907;SDS011;51055;59.436;24.778;2023-02-19T05:51:30;5.88;;;1.45;;
40907;SDS011;51055;59.436;24.778;2023-02-19T05:53:58;4.05;;;1.38;;
40907;SDS011;51055;59.436;24.778;2023-02-19T05:59:02;9.82;;;1.35;;
40907;SDS011;51055;59.436;24.778;2023-02-19T06:01:33;6.18;;;1.50;;
40907;SDS011;51055;59.436;24.778;2023-02-19T06:04:01;4.28;;;1.45;;
40907;SDS011;51055;59.436;24.778;2023-02-19T06:06:29;7.13;;;1.50;;
40907;SDS011;51055;59.436;24.778;2023-02-19T06:08:57;4.95;;;1.30;;
40907;SDS011;51055;59.436;24.778;2023-02-19T06:11:24;4.25;;;1.02;;
40907;SDS011;51055;59.436;24.778;2023-02-19T06:13:52;5.55;;;1.58;;
40907;SDS011;51055;59.436;24.778;2023-02-19T06:16:20;5.30;;;1.30;;
40907;SDS011;51055;59.436;24.778;2023-02-19T06:18:48;6.35;;;1.63;;
40907;SDS011;51055;59.436;24.778;2023-02-19T06:21:16;4.25;;;1.23;;
40907;SDS011;51055;59.436;24.778;2023-02-19T06:23:45;4.93;;;1.40;;
40907;SDS011;51055;59.436;24.778;2023-02-19T06:26:14;7.97;;;1.30;;
40907;SDS011;51055;59.436;24.778;2023-02-19T06:28:44;4.50;;;1.25;;
40907;SDS011;51055;59.436;24.778;2023-02-19T06:31:13;5.43;;;1.00;;
40907;SDS011;51055;59.436;24.778;2023-02-19T06:36:13;5.35;;;1.20;;
40907;SDS011;51055;59.436;24.778;2023-02-19T06:38:43;5.68;;;1.35;;
40907;SDS011;51055;59.436;24.778;2023-02-19T06:41:11;5.10;;;1.40;;
40907;SDS011;51055;59.436;24.778;2023-02-19T06:43:40;5.45;;;1.15;;
40907;SDS011;51055;59.436;24.778;2023-02-19T06:46:09;5.00;;;1.52;;
40907;SDS011;51055;59.436;24.778;2023-02-19T06:48:37;6.97;;;1.23;;
40907;SDS011;51055;59.436;24.778;2023-02-19T06:51:06;7.45;;;1.30;;
40907;SDS011;51055;59.436;24.778;2023-02-19T06:53:36;4.82;;;1.13;;
40907;SDS011;51055;59.436;24.778;2023-02-19T06:56:05;6.72;;;1.17;;
40907;SDS011;51055;59.436;24.778;2023-02-19T06:58:46;3.90;;;1.40;;
40907;SDS011;51055;59.436;24.778;2023-02-19T07:01:14;7.43;;;1.55;;
40907;SDS011;51055;59.436;24.778;2023-02-19T07:03:42;6.40;;;1.52;;
40907;SDS011;51055;59.436;24.778;2023-02-19T07:06:10;6.43;;;2.03;;
40907;SDS011;51055;59.436;24.778;2023-02-19T07:08:37;4.00;;;1.40;;
40907;SDS011;51055;59.436;24.778;2023-02-19T07:11:05;4.97;;;1.35;;
40907;SDS011;51055;59.436;24.778;2023-02-19T07:13:33;3.60;;;1.50;;
40907;SDS011;51055;59.436;24.778;2023-02-19T07:16:02;4.35;;;1.50;;
40907;SDS011;51055;59.436;24.778;2023-02-19T07:18:34;5.90;;;1.65;;
40907;SDS011;51055;59.436;24.778;2023-02-19T07:21:02;8.18;;;1.73;;
40907;SDS011;51055;59.436;24.778;2023-02-19T07:23:31;6.40;;;1.90;;
40907;SDS011;51055;59.436;24.778;2023-02-19T07:25:59;5.50;;;2.03;;
40907;SDS011;51055;59.436;24.778;2023-02-19T07:28:27;7.40;;;1.60;;
40907;SDS011;51055;59.436;24.778;2023-02-19T07:31:01;4.32;;;1.40;;
40907;SDS011;51055;59.436;24.778;2023-02-19T07:33:30;3.40;;;1.23;;
40907;SDS011;51055;59.436;24.778;2023-02-19T07:35:57;3.88;;;1.23;;
40907;SDS011;51055;59.436;24.778;2023-02-19T07:38:25;5.70;;;1.88;;
40907;SDS011;51055;59.436;24.778;2023-02-19T07:40:57;3.22;;;0.93;;
40907;SDS011;51055;59.436;24.778;2023-02-19T07:43:28;5.90;;;1.48;;
40907;SDS011;51055;59.436;24.778;2023-02-19T07:45:57;4.85;;;1.25;;
40907;SDS011;51055;59.436;24.778;2023-02-19T07:48:25;4.28;;;1.20;;
40907;SDS011;51055;59.436;24.778;2023-02-19T07:50:54;3.80;;;1.05;;
40907;SDS011;51055;59.436;24.778;2023-02-19T07:53:24;3.72;;;1.25;;
40907;SDS011;51055;59.436;24.778;2023-02-19T07:55:59;3.78;;;1.20;;
40907;SDS011;51055;59.436;24.778;2023-02-19T07:58:28;3.95;;;1.20;;
40907;SDS011;51055;59.436;24.778;2023-02-19T08:00:57;5.68;;;1.23;;
40907;SDS011;51055;59.436;24.778;2023-02-19T08:03:32;5.80;;;1.60;;
40907;SDS011;51055;59.436;24.778;2023-02-19T08:06:00;7.22;;;1.65;;
40907;SDS011;51055;59.436;24.778;2023-02-19T08:08:27;2.92;;;1.10;;
40907;SDS011;51055;59.436;24.778;2023-02-19T08:10:58;2.35;;;1.08;;
40907;SDS011;51055;59.436;24.778;2023-02-19T08:13:48;4.65;;;1.45;;
40907;SDS011;51055;59.436;24.778;2023-02-19T08:16:17;2.85;;;1.00;;
40907;SDS011;51055;59.436;24.778;2023-02-19T08:19:03;3.03;;;1.33;;
40907;SDS011;51055;59.436;24.778;2023-02-19T08:21:30;3.92;;;1.10;;
40907;SDS011;51055;59.436;24.778;2023-02-19T08:24:00;2.25;;;1.00;;
40907;SDS011;51055;59.436;24.778;2023-02-19T08:26:27;5.45;;;1.33;;
40907;SDS011;51055;59.436;24.778;2023-02-19T08:28:55;5.53;;;1.58;;
40907;SDS011;51055;59.436;24.778;2023-02-19T08:31:25;3.97;;;1.27;;
40907;SDS011;51055;59.436;24.778;2023-02-19T08:33:53;4.00;;;0.90;;
40907;SDS011;51055;59.436;24.778;2023-02-19T08:36:21;3.45;;;1.17;;
40907;SDS011;51055;59.436;24.778;2023-02-19T08:38:49;2.30;;;0.75;;
40907;SDS011;51055;59.436;24.778;2023-02-19T08:41:21;2.15;;;0.90;;
40907;SDS011;51055;59.436;24.778;2023-02-19T08:43:49;3.55;;;1.08;;
40907;SDS011;51055;59.436;24.778;2023-02-19T08:46:16;3.95;;;1.00;;
40907;SDS011;51055;59.436;24.778;2023-02-19T08:48:44;2.17;;;0.88;;
40907;SDS011;51055;59.436;24.778;2023-02-19T08:51:12;3.95;;;1.20;;
40907;SDS011;51055;59.436;24.778;2023-02-19T08:53:40;1.80;;;0.97;;
40907;SDS011;51055;59.436;24.778;2023-02-19T08:56:09;3.92;;;1.13;;
40907;SDS011;51055;59.436;24.778;2023-02-19T08:58:39;4.05;;;1.52;;
40907;SDS011;51055;59.436;24.778;2023-02-19T09:01:10;2.03;;;0.82;;
40907;SDS011;51055;59.436;24.778;2023-02-19T09:03:40;3.75;;;1.23;;
40907;SDS011;51055;59.436;24.778;2023-02-19T09:06:15;3.45;;;1.27;;
40907;SDS011;51055;59.436;24.778;2023-02-19T09:08:44;4.70;;;1.40;;
40907;SDS011;51055;59.436;24.778;2023-02-19T09:11:12;2.92;;;1.10;;
40907;SDS011;51055;59.436;24.778;2023-02-19T09:13:41;3.75;;;1.15;;
40907;SDS011;51055;59.436;24.778;2023-02-19T09:16:10;4.10;;;1.25;;
40907;SDS011;51055;59.436;24.778;2023-02-19T09:18:37;2.80;;;1.10;;
40907;SDS011;51055;59.436;24.778;2023-02-19T09:21:05;4.22;;;1.08;;
40907;SDS011;51055;59.436;24.778;2023-02-19T09:23:33;2.95;;;0.95;;
40907;SDS011;51055;59.436;24.778;2023-02-19T09:26:02;5.40;;;1.20;;
40907;SDS011;51055;59.436;24.778;2023-02-19T09:28:33;1.55;;;0.90;;
40907;SDS011;51055;59.436;24.778;2023-02-19T09:31:04;2.20;;;1.10;;
40907;SDS011;51055;59.436;24.778;2023-02-19T09:33:33;3.65;;;1.38;;
40907;SDS011;51055;59.436;24.778;2023-02-19T09:36:01;3.95;;;1.13;;
40907;SDS011;51055;59.436;24.778;2023-02-19T09:38:29;3.10;;;1.13;;
40907;SDS011;51055;59.436;24.778;2023-02-19T09:40:57;4.80;;;1.00;;
40907;SDS011;51055;59.436;24.778;2023-02-19T09:43:26;3.47;;;1.25;;
40907;SDS011;51055;59.436;24.778;2023-02-19T09:46:00;1.60;;;0.90;;
40907;SDS011;51055;59.436;24.778;2023-02-19T09:48:30;2.50;;;1.08;;
40907;SDS011;51055;59.436;24.778;2023-02-19T09:50:58;2.23;;;0.90;;
40907;SDS011;51055;59.436;24.778;2023-02-19T09:53:28;4.32;;;1.20;;
40907;SDS011;51055;59.436;24.778;2023-02-19T09:56:06;2.20;;;1.08;;
40907;SDS011;51055;59.436;24.778;2023-02-19T09:58:39;5.18;;;1.90;;
40907;SDS011;51055;59.436;24.778;2023-02-19T10:01:15;4.43;;;2.20;;
40907;SDS011;51055;59.436;24.778;2023-02-19T10:06:17;4.80;;;1.70;;
40907;SDS011;51055;59.436;24.778;2023-02-19T10:09:04;3.13;;;1.20;;
40907;SDS011;51055;59.436;24.778;2023-02-19T10:11:53;3.85;;;1.65;;
40907;SDS011;51055;59.436;24.778;2023-02-19T10:14:22;3.45;;;1.33;;
40907;SDS011;51055;59.436;24.778;2023-02-19T10:16:56;4.20;;;1.77;;
40907;SDS011;51055;59.436;24.778;2023-02-19T10:19:27;3.35;;;1.65;;
40907;SDS011;51055;59.436;24.778;2023-02-19T10:21:55;2.85;;;1.30;;
40907;SDS011;51055;59.436;24.778;2023-02-19T10:24:24;2.33;;;1.00;;
40907;SDS011;51055;59.436;24.778;2023-02-19T10:26:54;1.80;;;1.00;;
40907;SDS011;51055;59.436;24.778;2023-02-19T10:29:22;3.28;;;1.45;;
40907;SDS011;51055;59.436;24.778;2023-02-19T10:34:45;3.88;;;1.73;;
40907;SDS011;51055;59.436;24.778;2023-02-19T10:37:14;2.78;;;1.55;;
40907;SDS011;51055;59.436;24.778;2023-02-19T10:39:45;7.03;;;2.80;;
40907;SDS011;51055;59.436;24.778;2023-02-19T10:42:17;4.88;;;2.72;;
40907;SDS011;51055;59.436;24.778;2023-02-19T10:44:52;4.93;;;1.80;;
40907;SDS011;51055;59.436;24.778;2023-02-19T10:47:25;7.25;;;3.63;;
40907;SDS011;51055;59.436;24.778;2023-02-19T10:49:56;9.93;;;5.25;;
40907;SDS011;51055;59.436;24.778;2023-02-19T10:52:31;8.48;;;3.95;;
40907;SDS011;51055;59.436;24.778;2023-02-19T10:55:24;4.72;;;2.50;;
40907;SDS011;51055;59.436;24.778;2023-02-19T10:58:23;7.28;;;2.70;;
40907;SDS011;51055;59.436;24.778;2023-02-19T11:01:08;5.10;;;2.17;;
40907;SDS011;51055;59.436;24.778;2023-02-19T11:03:38;4.25;;;2.13;;
40907;SDS011;51055;59.436;24.778;2023-02-19T11:06:06;5.57;;;2.15;;
40907;SDS011;51055;59.436;24.778;2023-02-19T11:08:44;4.40;;;2.10;;
40907;SDS011;51055;59.436;24.778;2023-02-19T11:13:54;5.22;;;2.05;;
40907;SDS011;51055;59.436;24.778;2023-02-19T11:16:23;4.97;;;2.03;;
40907;SDS011;51055;59.436;24.778;2023-02-19T11:19:15;4.95;;;2.53;;
40907;SDS011;51055;59.436;24.778;2023-02-19T11:21:48;4.75;;;2.10;;
40907;SDS011;51055;59.436;24.778;2023-02-19T11:24:24;4.80;;;2.07;;
40907;SDS011;51055;59.436;24.778;2023-02-19T11:26:56;5.22;;;2.60;;
40907;SDS011;51055;59.436;24.778;2023-02-19T11:29:25;4.28;;;2.00;;
40907;SDS011;51055;59.436;24.778;2023-02-19T11:34:26;4.03;;;2.13;;
40907;SDS011;51055;59.436;24.778;2023-02-19T11:37:12;5.85;;;2.40;;
40907;SDS011;51055;59.436;24.778;2023-02-19T11:39:44;7.03;;;2.78;;
40907;SDS011;51055;59.436;24.778;2023-02-19T11:53:39;7.07;;;3.33;;
40907;SDS011;51055;59.436;24.778;2023-02-19T12:00:54;8.85;;;4.70;;
40907;SDS011;51055;59.436;24.778;2023-02-19T12:09:09;8.18;;;3.90;;
40907;SDS011;51055;59.436;24.778;2023-02-19T12:11:49;10.20;;;5.00;;
40907;SDS011;51055;59.436;24.778;2023-02-19T12:26:36;8.75;;;5.57;;
40907;SDS011;51055;59.436;24.778;2023-02-19T12:40:10;9.48;;;4.90;;
40907;SDS011;51055;59.436;24.778;2023-02-19T12:50:54;8.50;;;5.22;;
40907;SDS011;51055;59.436;24.778;2023-02-19T12:56:20;8.95;;;5.07;;
40907;SDS011;51055;59.436;24.778;2023-02-19T12:58:53;8.85;;;4.90;;
40907;SDS011;51055;59.436;24.778;2023-02-19T13:01:37;8.25;;;4.55;;
40907;SDS011;51055;59.436;24.778;2023-02-19T13:07:25;8.55;;;4.70;;
40907;SDS011;51055;59.436;24.778;2023-02-19T13:10:21;8.88;;;5.05;;
40907;SDS011;51055;59.436;24.778;2023-02-19T13:12:54;10.38;;;5.30;;
40907;SDS011;51055;59.436;24.778;2023-02-19T13:15:33;8.15;;;4.63;;
40907;SDS011;51055;59.436;24.778;2023-02-19T13:18:06;9.50;;;4.35;;
40907;SDS011;51055;59.436;24.778;2023-02-19T13:20:59;6.85;;;3.60;;
40907;SDS011;51055;59.436;24.778;2023-02-19T13:23:32;6.75;;;3.95;;
40907;SDS011;51055;59.436;24.778;2023-02-19T13:37:22;9.43;;;5.00;;
40907;SDS011;51055;59.436;24.778;2023-02-19T13:39:52;10.32;;;6.32;;
40907;SDS011;51055;59.436;24.778;2023-02-19T13:42:23;9.60;;;5.68;;
40907;SDS011;51055;59.436;24.778;2023-02-19T13:45:02;9.00;;;5.75;;
40907;SDS011;51055;59.436;24.778;2023-02-19T13:50:30;9.93;;;5.88;;
40907;SDS011;51055;59.436;24.778;2023-02-19T13:53:00;10.45;;;6.30;;
40907;SDS011;51055;59.436;24.778;2023-02-19T13:55:49;9.38;;;5.53;;
40907;SDS011;51055;59.436;24.778;2023-02-19T14:06:17;11.95;;;6.53;;
40907;SDS011;51055;59.436;24.778;2023-02-19T14:08:49;11.15;;;6.72;;
40907;SDS011;51055;59.436;24.778;2023-02-19T14:12:00;10.02;;;6.07;;
40907;SDS011;51055;59.436;24.778;2023-02-19T14:14:54;12.27;;;6.90;;
40907;SDS011;51055;59.436;24.778;2023-02-19T14:30:59;10.93;;;6.32;;
40907;SDS011;51055;59.436;24.778;2023-02-19T14:33:38;8.63;;;5.07;;
40907;SDS011;51055;59.436;24.778;2023-02-19T14:38:54;9.77;;;5.22;;
40907;SDS011;51055;59.436;24.778;2023-02-19T14:41:24;7.90;;;5.18;;
40907;SDS011;51055;59.436;24.778;2023-02-19T14:43:56;7.95;;;4.93;;
40907;SDS011;51055;59.436;24.778;2023-02-19T14:46:32;9.13;;;6.00;;
40907;SDS011;51055;59.436;24.778;2023-02-19T14:49:12;11.35;;;6.60;;
40907;SDS011;51055;59.436;24.778;2023-02-19T14:51:58;10.40;;;6.80;;
40907;SDS011;51055;59.436;24.778;2023-02-19T14:57:17;10.02;;;6.05;;
40907;SDS011;51055;59.436;24.778;2023-02-19T14:59:59;11.77;;;7.05;;
40907;SDS011;51055;59.436;24.778;2023-02-19T15:02:30;11.18;;;6.82;;
40907;SDS011;51055;59.436;24.778;2023-02-19T15:04:59;10.50;;;6.22;;
40907;SDS011;51055;59.436;24.778;2023-02-19T15:07:27;8.63;;;5.63;;
40907;SDS011;51055;59.436;24.778;2023-02-19T15:10:02;11.90;;;6.45;;
40907;SDS011;51055;59.436;24.778;2023-02-19T15:12:44;12.18;;;7.63;;
40907;SDS011;51055;59.436;24.778;2023-02-19T15:15:21;8.68;;;6.00;;
40907;SDS011;51055;59.436;24.778;2023-02-19T15:17:54;9.70;;;5.70;;
40907;SDS011;51055;59.436;24.778;2023-02-19T15:20:27;9.75;;;5.93;;
40907;SDS011;51055;59.436;24.778;2023-02-19T15:23:03;8.27;;;4.93;;
40907;SDS011;51055;59.436;24.778;2023-02-19T15:25:35;11.57;;;6.88;;
40907;SDS011;51055;59.436;24.778;2023-02-19T15:30:52;10.98;;;6.43;;
40907;SDS011;51055;59.436;24.778;2023-02-19T15:33:33;10.65;;;6.13;;
40907;SDS011;51055;59.436;24.778;2023-02-19T15:36:03;10.47;;;6.77;;
40907;SDS011;51055;59.436;24.778;2023-02-19T15:38:33;12.40;;;6.60;;
40907;SDS011;51055;59.436;24.778;2023-02-19T15:41:02;9.73;;;6.75;;
40907;SDS011;51055;59.436;24.778;2023-02-19T15:43:32;9.07;;;5.25;;
40907;SDS011;51055;59.436;24.778;2023-02-19T15:46:25;10.68;;;6.80;;
40907;SDS011;51055;59.436;24.778;2023-02-19T15:48:55;8.30;;;5.30;;
40907;SDS011;51055;59.436;24.778;2023-02-19T15:51:36;11.27;;;6.63;;
40907;SDS011;51055;59.436;24.778;2023-02-19T15:54:28;10.82;;;6.82;;
40907;SDS011;51055;59.436;24.778;2023-02-19T15:57:15;11.52;;;7.80;;
40907;SDS011;51055;59.436;24.778;2023-02-19T15:59:58;11.57;;;7.72;;
40907;SDS011;51055;59.436;24.778;2023-02-19T16:02:35;12.60;;;7.35;;
40907;SDS011;51055;59.436;24.778;2023-02-19T16:05:13;12.75;;;7.63;;
40907;SDS011;51055;59.436;24.778;2023-02-19T16:08:05;11.55;;;7.10;;
40907;SDS011;51055;59.436;24.778;2023-02-19T16:10:56;14.88;;;9.85;;
40907;SDS011;51055;59.436;24.778;2023-02-19T16:13:27;16.08;;;10.90;;
40907;SDS011;51055;59.436;24.778;2023-02-19T16:16:05;16.55;;;10.43;;
40907;SDS011;51055;59.436;24.778;2023-02-19T16:18:45;15.98;;;10.15;;
40907;SDS011;51055;59.436;24.778;2023-02-19T16:21:23;14.85;;;9.60;;
40907;SDS011;51055;59.436;24.778;2023-02-19T16:23:57;16.48;;;10.43;;
40907;SDS011;51055;59.436;24.778;2023-02-19T16:26:38;15.68;;;10.00;;
40907;SDS011;51055;59.436;24.778;2023-02-19T16:29:20;16.35;;;10.32;;
40907;SDS011;51055;59.436;24.778;2023-02-19T16:32:36;14.52;;;9.95;;
40907;SDS011;51055;59.436;24.778;2023-02-19T16:34:47;16.75;;;10.98;;
40907;SDS011;51055;59.436;24.778;2023-02-19T16:37:38;14.95;;;10.10;;
40907;SDS011;51055;59.436;24.778;2023-02-19T16:45:15;16.90;;;11.63;;
40907;SDS011;51055;59.436;24.778;2023-02-19T16:47:43;16.52;;;11.05;;
40907;SDS011;51055;59.436;24.778;2023-02-19T16:50:19;18.35;;;11.27;;
40907;SDS011;51055;59.436;24.778;2023-02-19T16:52:49;17.42;;;10.70;;
40907;SDS011;51055;59.436;24.778;2023-02-19T16:55:17;14.60;;;9.02;;
40907;SDS011;51055;59.436;24.778;2023-02-19T16:57:46;15.30;;;10.70;;
40907;SDS011;51055;59.436;24.778;2023-02-19T17:00:18;17.27;;;11.75;;
40907;SDS011;51055;59.436;24.778;2023-02-19T17:02:50;16.80;;;11.23;;
40907;SDS011;51055;59.436;24.778;2023-02-19T17:05:20;16.02;;;10.50;;
40907;SDS011;51055;59.436;24.778;2023-02-19T17:07:51;16.33;;;11.05;;
40907;SDS011;51055;59.436;24.778;2023-02-19T17:10:20;13.95;;;9.30;;
40907;SDS011;51055;59.436;24.778;2023-02-19T17:12:51;16.73;;;10.68;;
40907;SDS011;51055;59.436;24.778;2023-02-19T17:15:20;17.65;;;11.30;;
40907;SDS011;51055;59.436;24.778;2023-02-19T17:17:48;17.02;;;11.20;;
40907;SDS011;51055;59.436;24.778;2023-02-19T17:25:12;16.48;;;10.63;;
40907;SDS011;51055;59.436;24.778;2023-02-19T17:27:40;18.27;;;12.02;;
40907;SDS011;51055;59.436;24.778;2023-02-19T17:30:10;14.07;;;8.77;;
40907;SDS011;51055;59.436;24.778;2023-02-19T17:32:43;17.23;;;11.25;;
40907;SDS011;51055;59.436;24.778;2023-02-19T17:35:12;15.85;;;10.55;;
40907;SDS011;51055;59.436;24.778;2023-02-19T17:37:40;17.52;;;10.50;;
40907;SDS011;51055;59.436;24.778;2023-02-19T17:40:21;12.27;;;8.80;;